Aérodrome :
LOGIN :

S'inscrire | Disclaimer

   EN    FR    IT 

 










Légende :    VFR   VFR Marginal   IFR   IFR Intensif   IFR Très Intensif
Visi : 
Plafond : 
>= 8 km
>= 3000ft
5 à 8 km
1000 à 3000 ft
1500m à 5 km
500 à 1000 ft
800 à 1500m
200 à 500 ft
< 800m
< 200 ft
Symboles :   Orages  Brouillard  Fortes neiges  Fortes précipitations  Vent > 20 kt
SIGMETs :   Divers  Orages  Givrage  Turbulence  Onde Orograph.  Cendres Volcan.







- Altitude de l'aérodrome : 1367 ft
- Code IATA : FDH


EDNY - Friedrichshafen

DERNIER METAR :
  • 261720Z 01005KT 330V040 9999 SCT007 OVC036 03/02 Q1011

METARs EXPIRÉS :
  • 261650Z 02006KT 9999 -SHRA FEW008 SCT016 OVC035 04/02 Q1011
  • 261620Z 35006KT 9999 -SHRA FEW014 SCT027 OVC043 04/02 Q1011
  • 261550Z 36007KT 9999 FEW009 OVC018 04/02 Q1011
  • 261520Z 01007KT 9999 -SHRA FEW009 OVC017 04/03 Q1011
  • 261450Z 01007KT 9999 -SHRA FEW010 OVC016 04/03 Q1011
  • 261420Z 02007KT 9999 -SHRA FEW008 BKN013 OVC015 04/02 Q1011

TAF TAF EDNY
Valide du 26 à 18h jusqu'au 27 à 18h UTC


261700Z 2618/2718 02005KT 8000 SCT012 BKN040
BECMG 2618/2620 BKN012
TEMPO 2700/2709 3000 RASN BKN008
BECMG 2710/2712 BKN015
TEMPO 2712/2718 RA BKN010
Pas de NOTAMs connus pour ce terrain.



MET'MAP, la Météo Aéronautique d'un coup d'oeil ! - Copyright ORBIFLY Décembre 2007 - Disclaimer

ORBIFLY MET'MAP TEAM :

Programmation & Développement : Alexandra Zaïnal
Conception & Développement : Baudouin d'Aumeries
Co-Programmation & Développement : Marc-Olivier Méhu
Soutien technique & logistique : Manuel Goepfert

Contact : metmap@orbifly.com




SOURCES & CREDITS :

   NOAA